sensor_id;sensor_type;location;lat;lon;timestamp;P1;durP1;ratioP1;P2;durP2;ratioP2
55206;SDS011;41079;52.856;6.534;2022-09-01T00:02:03;800.30;;;331.73;;
55206;SDS011;41079;52.856;6.534;2022-09-01T00:04:32;800.38;;;330.92;;
55206;SDS011;41079;52.856;6.534;2022-09-01T00:07:00;795.95;;;327.65;;
55206;SDS011;41079;52.856;6.534;2022-09-01T00:09:26;804.17;;;334.27;;
55206;SDS011;41079;52.856;6.534;2022-09-01T00:11:52;804.85;;;334.33;;
55206;SDS011;41079;52.856;6.534;2022-09-01T00:14:30;802.42;;;331.42;;
55206;SDS011;41079;52.856;6.534;2022-09-01T00:16:59;802.80;;;332.75;;
55206;SDS011;41079;52.856;6.534;2022-09-01T00:19:26;801.97;;;330.50;;
55206;SDS011;41079;52.856;6.534;2022-09-01T00:21:53;807.30;;;335.55;;
55206;SDS011;41079;52.856;6.534;2022-09-01T00:24:19;798.05;;;328.52;;
55206;SDS011;41079;52.856;6.534;2022-09-01T00:26:46;808.03;;;336.42;;
55206;SDS011;41079;52.856;6.534;2022-09-01T00:29:12;807.90;;;337.10;;
55206;SDS011;41079;52.856;6.534;2022-09-01T00:31:38;809.50;;;337.58;;
55206;SDS011;41079;52.856;6.534;2022-09-01T00:34:04;803.92;;;332.92;;
55206;SDS011;41079;52.856;6.534;2022-09-01T00:36:30;802.47;;;331.85;;
55206;SDS011;41079;52.856;6.534;2022-09-01T00:38:55;805.20;;;334.63;;
55206;SDS011;41079;52.856;6.534;2022-09-01T00:41:23;806.75;;;334.63;;
55206;SDS011;41079;52.856;6.534;2022-09-01T00:43:51;801.40;;;330.85;;
55206;SDS011;41079;52.856;6.534;2022-09-01T00:46:22;811.58;;;338.67;;
55206;SDS011;41079;52.856;6.534;2022-09-01T00:48:52;803.28;;;332.65;;
55206;SDS011;41079;52.856;6.534;2022-09-01T00:51:19;806.85;;;334.30;;
55206;SDS011;41079;52.856;6.534;2022-09-01T00:53:45;810.45;;;336.73;;
55206;SDS011;41079;52.856;6.534;2022-09-01T00:56:12;809.97;;;335.95;;
55206;SDS011;41079;52.856;6.534;2022-09-01T00:58:38;802.08;;;330.55;;
55206;SDS011;41079;52.856;6.534;2022-09-01T01:01:05;811.55;;;337.88;;
55206;SDS011;41079;52.856;6.534;2022-09-01T01:03:32;796.95;;;327.85;;
55206;SDS011;41079;52.856;6.534;2022-09-01T01:06:00;812.90;;;338.27;;
55206;SDS011;41079;52.856;6.534;2022-09-01T01:08:32;808.72;;;335.13;;
55206;SDS011;41079;52.856;6.534;2022-09-01T01:11:09;807.30;;;335.42;;
55206;SDS011;41079;52.856;6.534;2022-09-01T01:13:48;805.00;;;331.70;;
55206;SDS011;41079;52.856;6.534;2022-09-01T01:16:19;801.22;;;329.42;;
55206;SDS011;41079;52.856;6.534;2022-09-01T01:18:45;805.97;;;332.02;;
55206;SDS011;41079;52.856;6.534;2022-09-01T01:21:17;807.65;;;335.05;;
55206;SDS011;41079;52.856;6.534;2022-09-01T01:24:16;800.42;;;328.48;;
55206;SDS011;41079;52.856;6.534;2022-09-01T01:26:52;796.88;;;326.85;;
55206;SDS011;41079;52.856;6.534;2022-09-01T01:29:21;804.70;;;331.42;;
55206;SDS011;41079;52.856;6.534;2022-09-01T01:31:48;801.50;;;329.30;;
55206;SDS011;41079;52.856;6.534;2022-09-01T01:34:17;794.88;;;324.35;;
55206;SDS011;41079;52.856;6.534;2022-09-01T01:36:43;797.83;;;326.80;;
55206;SDS011;41079;52.856;6.534;2022-09-01T01:39:19;803.58;;;331.38;;
55206;SDS011;41079;52.856;6.534;2022-09-01T01:41:49;805.70;;;331.63;;
55206;SDS011;41079;52.856;6.534;2022-09-01T01:44:18;808.95;;;334.10;;
55206;SDS011;41079;52.856;6.534;2022-09-01T01:46:47;798.22;;;327.88;;
55206;SDS011;41079;52.856;6.534;2022-09-01T01:49:15;805.58;;;332.10;;
55206;SDS011;41079;52.856;6.534;2022-09-01T01:51:45;811.13;;;336.45;;
55206;SDS011;41079;52.856;6.534;2022-09-01T01:54:12;810.50;;;336.25;;
55206;SDS011;41079;52.856;6.534;2022-09-01T01:56:39;794.40;;;323.25;;
55206;SDS011;41079;52.856;6.534;2022-09-01T01:59:06;809.63;;;333.88;;
55206;SDS011;41079;52.856;6.534;2022-09-01T02:01:34;811.05;;;335.23;;
55206;SDS011;41079;52.856;6.534;2022-09-01T02:04:00;805.30;;;330.95;;
55206;SDS011;41079;52.856;6.534;2022-09-01T02:06:31;808.90;;;333.45;;
55206;SDS011;41079;52.856;6.534;2022-09-01T02:08:58;802.78;;;330.13;;
55206;SDS011;41079;52.856;6.534;2022-09-01T02:11:27;804.65;;;330.58;;
55206;SDS011;41079;52.856;6.534;2022-09-01T02:13:54;801.38;;;327.67;;
55206;SDS011;41079;52.856;6.534;2022-09-01T02:16:21;797.13;;;324.58;;
55206;SDS011;41079;52.856;6.534;2022-09-01T02:18:48;800.65;;;327.90;;
55206;SDS011;41079;52.856;6.534;2022-09-01T02:21:16;796.85;;;326.33;;
55206;SDS011;41079;52.856;6.534;2022-09-01T02:23:55;804.13;;;329.73;;
55206;SDS011;41079;52.856;6.534;2022-09-01T02:26:27;808.38;;;332.73;;
55206;SDS011;41079;52.856;6.534;2022-09-01T02:28:55;796.20;;;325.38;;
55206;SDS011;41079;52.856;6.534;2022-09-01T02:31:25;802.90;;;329.42;;
55206;SDS011;41079;52.856;6.534;2022-09-01T02:33:52;808.25;;;331.52;;
55206;SDS011;41079;52.856;6.534;2022-09-01T02:36:18;804.83;;;329.83;;
55206;SDS011;41079;52.856;6.534;2022-09-01T02:38:44;808.15;;;332.30;;
55206;SDS011;41079;52.856;6.534;2022-09-01T02:41:12;811.60;;;335.63;;
55206;SDS011;41079;52.856;6.534;2022-09-01T02:43:39;806.42;;;332.08;;
55206;SDS011;41079;52.856;6.534;2022-09-01T02:46:07;810.72;;;334.50;;
55206;SDS011;41079;52.856;6.534;2022-09-01T02:48:34;801.08;;;327.17;;
55206;SDS011;41079;52.856;6.534;2022-09-01T02:51:03;804.13;;;331.05;;
55206;SDS011;41079;52.856;6.534;2022-09-01T02:53:34;810.13;;;334.02;;
55206;SDS011;41079;52.856;6.534;2022-09-01T02:56:02;800.72;;;327.88;;
55206;SDS011;41079;52.856;6.534;2022-09-01T02:58:33;809.97;;;333.33;;
55206;SDS011;41079;52.856;6.534;2022-09-01T03:01:09;794.90;;;324.95;;
55206;SDS011;41079;52.856;6.534;2022-09-01T03:03:49;795.17;;;323.92;;
55206;SDS011;41079;52.856;6.534;2022-09-01T03:06:17;802.42;;;327.98;;
55206;SDS011;41079;52.856;6.534;2022-09-01T03:08:48;806.38;;;331.88;;
55206;SDS011;41079;52.856;6.534;2022-09-01T03:11:14;810.08;;;334.70;;
55206;SDS011;41079;52.856;6.534;2022-09-01T03:13:41;808.92;;;332.70;;
55206;SDS011;41079;52.856;6.534;2022-09-01T03:16:07;808.58;;;332.77;;
55206;SDS011;41079;52.856;6.534;2022-09-01T03:18:34;798.35;;;325.30;;
55206;SDS011;41079;52.856;6.534;2022-09-01T03:21:01;801.50;;;327.90;;
55206;SDS011;41079;52.856;6.534;2022-09-01T03:23:29;800.60;;;326.90;;
55206;SDS011;41079;52.856;6.534;2022-09-01T03:25:58;809.90;;;333.48;;
55206;SDS011;41079;52.856;6.534;2022-09-01T03:28:23;795.80;;;324.13;;
55206;SDS011;41079;52.856;6.534;2022-09-01T03:30:50;797.53;;;325.20;;
55206;SDS011;41079;52.856;6.534;2022-09-01T03:33:20;797.25;;;325.52;;
55206;SDS011;41079;52.856;6.534;2022-09-01T03:35:47;804.47;;;329.70;;
55206;SDS011;41079;52.856;6.534;2022-09-01T03:38:13;808.00;;;331.45;;
55206;SDS011;41079;52.856;6.534;2022-09-01T03:40:44;810.20;;;333.88;;
55206;SDS011;41079;52.856;6.534;2022-09-01T03:43:11;805.22;;;329.85;;
55206;SDS011;41079;52.856;6.534;2022-09-01T03:45:38;809.10;;;333.20;;
55206;SDS011;41079;52.856;6.534;2022-09-01T03:48:05;810.10;;;333.65;;
55206;SDS011;41079;52.856;6.534;2022-09-01T03:50:33;789.75;;;320.77;;
55206;SDS011;41079;52.856;6.534;2022-09-01T03:53:05;809.85;;;334.15;;
55206;SDS011;41079;52.856;6.534;2022-09-01T03:55:33;810.15;;;334.23;;
55206;SDS011;41079;52.856;6.534;2022-09-01T03:58:00;804.65;;;329.00;;
55206;SDS011;41079;52.856;6.534;2022-09-01T04:00:30;809.95;;;334.45;;
55206;SDS011;41079;52.856;6.534;2022-09-01T04:03:00;794.40;;;323.92;;
55206;SDS011;41079;52.856;6.534;2022-09-01T04:05:28;803.95;;;328.83;;
55206;SDS011;41079;52.856;6.534;2022-09-01T04:07:59;805.15;;;330.98;;
55206;SDS011;41079;52.856;6.534;2022-09-01T04:10:27;803.40;;;330.70;;
55206;SDS011;41079;52.856;6.534;2022-09-01T04:12:56;800.33;;;327.85;;
55206;SDS011;41079;52.856;6.534;2022-09-01T04:15:23;799.28;;;325.60;;
55206;SDS011;41079;52.856;6.534;2022-09-01T04:17:50;798.50;;;325.85;;
55206;SDS011;41079;52.856;6.534;2022-09-01T04:20:39;801.40;;;329.52;;
55206;SDS011;41079;52.856;6.534;2022-09-01T04:23:15;807.33;;;332.70;;
55206;SDS011;41079;52.856;6.534;2022-09-01T04:28:14;802.97;;;329.23;;
55206;SDS011;41079;52.856;6.534;2022-09-01T04:30:56;808.05;;;333.20;;
55206;SDS011;41079;52.856;6.534;2022-09-01T04:33:26;805.55;;;330.98;;
55206;SDS011;41079;52.856;6.534;2022-09-01T04:36:03;802.75;;;329.00;;
55206;SDS011;41079;52.856;6.534;2022-09-01T04:38:44;799.05;;;327.48;;
55206;SDS011;41079;52.856;6.534;2022-09-01T04:41:13;801.08;;;328.17;;
55206;SDS011;41079;52.856;6.534;2022-09-01T04:43:42;800.80;;;328.38;;
55206;SDS011;41079;52.856;6.534;2022-09-01T04:46:09;801.17;;;328.98;;
55206;SDS011;41079;52.856;6.534;2022-09-01T04:48:37;794.33;;;323.63;;
55206;SDS011;41079;52.856;6.534;2022-09-01T04:51:06;799.60;;;327.58;;
55206;SDS011;41079;52.856;6.534;2022-09-01T04:53:34;806.17;;;330.60;;
55206;SDS011;41079;52.856;6.534;2022-09-01T04:56:04;795.72;;;325.42;;
55206;SDS011;41079;52.856;6.534;2022-09-01T04:58:31;801.97;;;329.77;;
55206;SDS011;41079;52.856;6.534;2022-09-01T05:00:58;796.85;;;326.83;;
55206;SDS011;41079;52.856;6.534;2022-09-01T05:03:24;799.90;;;330.27;;
55206;SDS011;41079;52.856;6.534;2022-09-01T05:05:50;787.35;;;320.10;;
55206;SDS011;41079;52.856;6.534;2022-09-01T05:08:19;806.45;;;334.42;;
55206;SDS011;41079;52.856;6.534;2022-09-01T05:10:47;804.45;;;333.25;;
55206;SDS011;41079;52.856;6.534;2022-09-01T05:21:19;809.20;;;338.33;;
55206;SDS011;41079;52.856;6.534;2022-09-01T05:23:48;797.25;;;331.35;;
55206;SDS011;41079;52.856;6.534;2022-09-01T05:26:22;794.67;;;330.25;;
55206;SDS011;41079;52.856;6.534;2022-09-01T05:28:51;803.22;;;336.67;;
55206;SDS011;41079;52.856;6.534;2022-09-01T05:31:18;803.40;;;336.38;;
55206;SDS011;41079;52.856;6.534;2022-09-01T05:33:45;795.55;;;330.20;;
55206;SDS011;41079;52.856;6.534;2022-09-01T05:36:15;803.72;;;335.27;;
55206;SDS011;41079;52.856;6.534;2022-09-01T05:38:42;808.15;;;340.60;;
55206;SDS011;41079;52.856;6.534;2022-09-01T05:41:09;804.50;;;338.77;;
55206;SDS011;41079;52.856;6.534;2022-09-01T05:43:39;803.60;;;336.85;;
55206;SDS011;41079;52.856;6.534;2022-09-01T05:46:11;800.08;;;333.92;;
55206;SDS011;41079;52.856;6.534;2022-09-01T05:48:43;786.75;;;323.55;;
55206;SDS011;41079;52.856;6.534;2022-09-01T05:51:09;801.05;;;337.23;;
55206;SDS011;41079;52.856;6.534;2022-09-01T05:53:38;794.72;;;330.67;;
55206;SDS011;41079;52.856;6.534;2022-09-01T05:56:06;790.47;;;326.88;;
55206;SDS011;41079;52.856;6.534;2022-09-01T05:58:33;808.53;;;343.65;;
55206;SDS011;41079;52.856;6.534;2022-09-01T06:01:00;806.20;;;341.33;;
55206;SDS011;41079;52.856;6.534;2022-09-01T06:03:26;805.72;;;340.85;;
55206;SDS011;41079;52.856;6.534;2022-09-01T06:05:53;807.97;;;342.52;;
55206;SDS011;41079;52.856;6.534;2022-09-01T06:08:20;795.55;;;331.15;;
55206;SDS011;41079;52.856;6.534;2022-09-01T06:10:49;788.90;;;324.30;;
55206;SDS011;41079;52.856;6.534;2022-09-01T06:13:16;792.83;;;326.80;;
55206;SDS011;41079;52.856;6.534;2022-09-01T06:15:46;800.92;;;335.98;;
55206;SDS011;41079;52.856;6.534;2022-09-01T06:18:13;808.58;;;342.90;;
55206;SDS011;41079;52.856;6.534;2022-09-01T06:20:39;795.67;;;330.80;;
55206;SDS011;41079;52.856;6.534;2022-09-01T06:23:07;795.35;;;331.08;;
55206;SDS011;41079;52.856;6.534;2022-09-01T06:25:36;798.17;;;333.05;;
55206;SDS011;41079;52.856;6.534;2022-09-01T06:28:03;789.22;;;322.95;;
55206;SDS011;41079;52.856;6.534;2022-09-01T06:30:29;805.88;;;340.50;;
55206;SDS011;41079;52.856;6.534;2022-09-01T06:32:57;803.75;;;337.38;;
55206;SDS011;41079;52.856;6.534;2022-09-01T06:35:25;808.28;;;342.88;;
55206;SDS011;41079;52.856;6.534;2022-09-01T06:37:54;802.47;;;335.83;;
55206;SDS011;41079;52.856;6.534;2022-09-01T06:40:21;800.83;;;333.85;;
55206;SDS011;41079;52.856;6.534;2022-09-01T06:42:49;809.00;;;342.63;;
55206;SDS011;41079;52.856;6.534;2022-09-01T06:45:17;799.88;;;330.20;;
55206;SDS011;41079;52.856;6.534;2022-09-01T06:47:45;807.20;;;338.90;;
55206;SDS011;41079;52.856;6.534;2022-09-01T06:50:12;810.20;;;341.63;;
55206;SDS011;41079;52.856;6.534;2022-09-01T06:52:42;811.28;;;342.65;;
55206;SDS011;41079;52.856;6.534;2022-09-01T06:55:12;808.83;;;338.38;;
55206;SDS011;41079;52.856;6.534;2022-09-01T06:57:39;808.97;;;337.58;;
55206;SDS011;41079;52.856;6.534;2022-09-01T07:00:11;811.65;;;340.50;;
55206;SDS011;41079;52.856;6.534;2022-09-01T07:02:45;811.28;;;340.23;;
55206;SDS011;41079;52.856;6.534;2022-09-01T07:05:12;809.33;;;337.13;;
55206;SDS011;41079;52.856;6.534;2022-09-01T07:07:47;811.33;;;338.63;;
55206;SDS011;41079;52.856;6.534;2022-09-01T07:10:16;809.13;;;334.60;;
55206;SDS011;41079;52.856;6.534;2022-09-01T07:15:13;811.30;;;336.33;;
55206;SDS011;41079;52.856;6.534;2022-09-01T07:17:40;808.53;;;331.08;;
55206;SDS011;41079;52.856;6.534;2022-09-01T07:20:06;810.72;;;332.92;;
55206;SDS011;41079;52.856;6.534;2022-09-01T07:22:34;801.85;;;318.88;;
55206;SDS011;41079;52.856;6.534;2022-09-01T07:25:00;807.58;;;324.70;;
55206;SDS011;41079;52.856;6.534;2022-09-01T07:27:26;810.70;;;326.75;;
55206;SDS011;41079;52.856;6.534;2022-09-01T07:29:52;808.67;;;321.85;;
55206;SDS011;41079;52.856;6.534;2022-09-01T07:32:20;808.28;;;320.88;;
55206;SDS011;41079;52.856;6.534;2022-09-01T07:34:46;793.30;;;301.88;;
55206;SDS011;41079;52.856;6.534;2022-09-01T07:37:11;807.67;;;316.65;;
55206;SDS011;41079;52.856;6.534;2022-09-01T07:39:37;808.10;;;314.42;;
55206;SDS011;41079;52.856;6.534;2022-09-01T07:42:08;803.83;;;308.85;;
55206;SDS011;41079;52.856;6.534;2022-09-01T07:44:36;803.90;;;306.52;;
55206;SDS011;41079;52.856;6.534;2022-09-01T07:47:02;810.80;;;311.58;;
55206;SDS011;41079;52.856;6.534;2022-09-01T07:49:28;806.80;;;304.35;;
55206;SDS011;41079;52.856;6.534;2022-09-01T07:51:54;800.92;;;296.45;;
55206;SDS011;41079;52.856;6.534;2022-09-01T07:54:20;804.70;;;299.85;;
55206;SDS011;41079;52.856;6.534;2022-09-01T07:56:49;799.35;;;292.92;;
55206;SDS011;41079;52.856;6.534;2022-09-01T07:59:14;807.28;;;296.35;;
55206;SDS011;41079;52.856;6.534;2022-09-01T08:01:40;801.83;;;290.40;;
55206;SDS011;41079;52.856;6.534;2022-09-01T08:04:06;811.85;;;299.10;;
55206;SDS011;41079;52.856;6.534;2022-09-01T08:06:33;808.88;;;296.77;;
55206;SDS011;41079;52.856;6.534;2022-09-01T08:08:58;813.17;;;299.77;;
55206;SDS011;41079;52.856;6.534;2022-09-01T08:11:28;808.20;;;294.65;;
55206;SDS011;41079;52.856;6.534;2022-09-01T08:13:54;803.00;;;288.13;;
55206;SDS011;41079;52.856;6.534;2022-09-01T08:16:23;811.05;;;295.67;;
55206;SDS011;41079;52.856;6.534;2022-09-01T08:18:49;808.03;;;291.60;;
55206;SDS011;41079;52.856;6.534;2022-09-01T08:21:16;808.33;;;291.00;;
55206;SDS011;41079;52.856;6.534;2022-09-01T08:23:43;807.05;;;288.50;;
55206;SDS011;41079;52.856;6.534;2022-09-01T08:26:11;811.85;;;291.77;;
55206;SDS011;41079;52.856;6.534;2022-09-01T08:28:38;809.97;;;288.50;;
55206;SDS011;41079;52.856;6.534;2022-09-01T08:31:14;804.08;;;282.45;;
55206;SDS011;41079;52.856;6.534;2022-09-01T08:33:42;805.60;;;281.88;;
55206;SDS011;41079;52.856;6.534;2022-09-01T08:36:09;812.22;;;288.08;;
55206;SDS011;41079;52.856;6.534;2022-09-01T08:38:36;803.97;;;280.77;;
55206;SDS011;41079;52.856;6.534;2022-09-01T08:41:04;804.22;;;280.05;;
55206;SDS011;41079;52.856;6.534;2022-09-01T08:46:32;817.78;;;289.40;;
55206;SDS011;41079;52.856;6.534;2022-09-01T08:49:03;815.47;;;286.80;;
55206;SDS011;41079;52.856;6.534;2022-09-01T08:51:56;818.53;;;288.77;;
55206;SDS011;41079;52.856;6.534;2022-09-01T08:59:55;815.38;;;285.13;;
55206;SDS011;41079;52.856;6.534;2022-09-01T09:10:41;811.92;;;279.98;;
55206;SDS011;41079;52.856;6.534;2022-09-01T09:15:49;812.20;;;280.70;;
55206;SDS011;41079;52.856;6.534;2022-09-01T09:18:28;817.33;;;284.10;;
55206;SDS011;41079;52.856;6.534;2022-09-01T09:21:16;804.75;;;273.83;;
55206;SDS011;41079;52.856;6.534;2022-09-01T09:24:09;809.65;;;276.88;;
55206;SDS011;41079;52.856;6.534;2022-09-01T09:27:15;821.28;;;286.92;;
55206;SDS011;41079;52.856;6.534;2022-09-01T09:29:54;824.40;;;288.42;;
55206;SDS011;41079;52.856;6.534;2022-09-01T09:32:43;825.40;;;289.35;;
55206;SDS011;41079;52.856;6.534;2022-09-01T09:35:20;819.95;;;285.27;;
55206;SDS011;41079;52.856;6.534;2022-09-01T09:37:48;822.90;;;286.45;;
55206;SDS011;41079;52.856;6.534;2022-09-01T09:40:18;821.33;;;284.27;;
55206;SDS011;41079;52.856;6.534;2022-09-01T09:45:25;821.88;;;284.77;;
55206;SDS011;41079;52.856;6.534;2022-09-01T09:47:51;828.97;;;290.33;;
55206;SDS011;41079;52.856;6.534;2022-09-01T09:50:21;821.53;;;284.30;;
55206;SDS011;41079;52.856;6.534;2022-09-01T09:52:49;815.88;;;280.27;;
55206;SDS011;41079;52.856;6.534;2022-09-01T09:55:19;826.45;;;288.30;;
55206;SDS011;41079;52.856;6.534;2022-09-01T09:57:52;823.03;;;285.38;;
55206;SDS011;41079;52.856;6.534;2022-09-01T10:02:51;816.80;;;280.33;;
55206;SDS011;41079;52.856;6.534;2022-09-01T10:08:10;821.58;;;281.83;;
55206;SDS011;41079;52.856;6.534;2022-09-01T10:11:01;826.15;;;286.48;;
55206;SDS011;41079;52.856;6.534;2022-09-01T10:13:29;823.67;;;285.65;;
55206;SDS011;41079;52.856;6.534;2022-09-01T10:16:30;823.70;;;284.98;;
55206;SDS011;41079;52.856;6.534;2022-09-01T10:18:54;831.63;;;292.05;;
55206;SDS011;41079;52.856;6.534;2022-09-01T10:21:43;816.28;;;277.92;;
55206;SDS011;41079;52.856;6.534;2022-09-01T10:24:29;830.15;;;290.30;;
55206;SDS011;41079;52.856;6.534;2022-09-01T10:27:10;829.72;;;289.90;;
55206;SDS011;41079;52.856;6.534;2022-09-01T10:32:43;829.53;;;289.13;;
55206;SDS011;41079;52.856;6.534;2022-09-01T10:35:20;832.70;;;292.02;;
55206;SDS011;41079;52.856;6.534;2022-09-01T10:37:48;832.50;;;290.52;;
55206;SDS011;41079;52.856;6.534;2022-09-01T10:42:56;827.03;;;284.63;;
55206;SDS011;41079;52.856;6.534;2022-09-01T10:50:49;830.47;;;288.98;;
55206;SDS011;41079;52.856;6.534;2022-09-01T10:59:08;833.20;;;290.88;;
55206;SDS011;41079;52.856;6.534;2022-09-01T11:04:18;828.85;;;287.50;;
55206;SDS011;41079;52.856;6.534;2022-09-01T11:09:36;830.08;;;290.05;;
55206;SDS011;41079;52.856;6.534;2022-09-01T11:14:52;829.75;;;290.25;;
55206;SDS011;41079;52.856;6.534;2022-09-01T11:17:27;821.25;;;282.55;;
55206;SDS011;41079;52.856;6.534;2022-09-01T11:22:40;823.30;;;285.05;;
55206;SDS011;41079;52.856;6.534;2022-09-01T11:28:08;824.60;;;287.25;;
55206;SDS011;41079;52.856;6.534;2022-09-01T11:30:35;824.45;;;286.65;;
55206;SDS011;41079;52.856;6.534;2022-09-01T11:35:41;827.05;;;289.52;;
55206;SDS011;41079;52.856;6.534;2022-09-01T11:38:09;828.75;;;291.17;;
55206;SDS011;41079;52.856;6.534;2022-09-01T11:40:39;828.75;;;290.45;;
55206;SDS011;41079;52.856;6.534;2022-09-01T11:43:14;827.10;;;289.60;;
55206;SDS011;41079;52.856;6.534;2022-09-01T11:46:03;827.58;;;289.23;;
55206;SDS011;41079;52.856;6.534;2022-09-01T11:48:39;829.17;;;291.00;;
55206;SDS011;41079;52.856;6.534;2022-09-01T11:51:10;821.17;;;283.27;;
55206;SDS011;41079;52.856;6.534;2022-09-01T11:53:36;820.45;;;282.83;;
55206;SDS011;41079;52.856;6.534;2022-09-01T11:56:18;829.67;;;291.63;;
55206;SDS011;41079;52.856;6.534;2022-09-01T11:58:48;826.80;;;288.95;;
55206;SDS011;41079;52.856;6.534;2022-09-01T12:01:16;830.67;;;291.42;;
55206;SDS011;41079;52.856;6.534;2022-09-01T12:03:47;829.05;;;290.55;;
55206;SDS011;41079;52.856;6.534;2022-09-01T12:06:20;819.00;;;282.25;;
55206;SDS011;41079;52.856;6.534;2022-09-01T12:08:57;828.72;;;291.13;;
55206;SDS011;41079;52.856;6.534;2022-09-01T12:11:35;826.90;;;289.80;;
55206;SDS011;41079;52.856;6.534;2022-09-01T12:14:02;827.40;;;289.73;;
55206;SDS011;41079;52.856;6.534;2022-09-01T12:16:33;828.40;;;290.73;;
55206;SDS011;41079;52.856;6.534;2022-09-01T12:19:02;820.08;;;283.88;;
55206;SDS011;41079;52.856;6.534;2022-09-01T12:21:30;814.47;;;279.67;;
55206;SDS011;41079;52.856;6.534;2022-09-01T12:24:09;828.15;;;289.95;;
55206;SDS011;41079;52.856;6.534;2022-09-01T12:26:36;824.50;;;287.10;;
55206;SDS011;41079;52.856;6.534;2022-09-01T12:29:03;828.83;;;290.52;;
55206;SDS011;41079;52.856;6.534;2022-09-01T12:31:30;829.38;;;289.27;;
55206;SDS011;41079;52.856;6.534;2022-09-01T12:33:56;825.42;;;286.70;;
55206;SDS011;41079;52.856;6.534;2022-09-01T12:36:26;815.10;;;277.95;;
55206;SDS011;41079;52.856;6.534;2022-09-01T12:38:55;824.97;;;287.35;;
55206;SDS011;41079;52.856;6.534;2022-09-01T12:41:42;825.83;;;287.92;;
55206;SDS011;41079;52.856;6.534;2022-09-01T12:44:28;827.92;;;290.42;;
55206;SDS011;41079;52.856;6.534;2022-09-01T12:46:55;827.63;;;289.65;;
55206;SDS011;41079;52.856;6.534;2022-09-01T12:49:23;825.05;;;286.13;;
55206;SDS011;41079;52.856;6.534;2022-09-01T12:52:04;825.92;;;287.75;;
55206;SDS011;41079;52.856;6.534;2022-09-01T12:54:33;828.45;;;289.08;;
55206;SDS011;41079;52.856;6.534;2022-09-01T12:56:59;827.97;;;289.58;;
55206;SDS011;41079;52.856;6.534;2022-09-01T12:59:25;827.25;;;288.48;;
55206;SDS011;41079;52.856;6.534;2022-09-01T13:01:51;816.65;;;280.58;;
55206;SDS011;41079;52.856;6.534;2022-09-01T13:06:45;827.13;;;288.40;;
55206;SDS011;41079;52.856;6.534;2022-09-01T13:09:11;829.58;;;289.83;;
55206;SDS011;41079;52.856;6.534;2022-09-01T13:11:36;830.60;;;290.63;;
55206;SDS011;41079;52.856;6.534;2022-09-01T13:14:02;824.70;;;285.42;;
55206;SDS011;41079;52.856;6.534;2022-09-01T13:16:28;828.50;;;287.20;;
55206;SDS011;41079;52.856;6.534;2022-09-01T13:18:54;825.33;;;284.65;;
55206;SDS011;41079;52.856;6.534;2022-09-01T13:21:19;826.22;;;283.60;;
55206;SDS011;41079;52.856;6.534;2022-09-01T13:23:45;828.83;;;285.73;;
55206;SDS011;41079;52.856;6.534;2022-09-01T13:26:11;830.65;;;287.10;;
55206;SDS011;41079;52.856;6.534;2022-09-01T13:28:37;836.03;;;290.88;;
55206;SDS011;41079;52.856;6.534;2022-09-01T13:31:03;835.50;;;289.83;;
55206;SDS011;41079;52.856;6.534;2022-09-01T13:33:30;837.63;;;292.35;;
55206;SDS011;41079;52.856;6.534;2022-09-01T13:35:57;836.85;;;292.10;;
55206;SDS011;41079;52.856;6.534;2022-09-01T13:38:22;829.78;;;285.20;;
55206;SDS011;41079;52.856;6.534;2022-09-01T13:40:48;834.53;;;290.27;;
55206;SDS011;41079;52.856;6.534;2022-09-01T13:43:17;834.88;;;290.83;;
55206;SDS011;41079;52.856;6.534;2022-09-01T13:45:44;832.28;;;288.40;;
55206;SDS011;41079;52.856;6.534;2022-09-01T13:48:10;833.65;;;289.98;;
55206;SDS011;41079;52.856;6.534;2022-09-01T13:50:37;835.63;;;291.35;;
55206;SDS011;41079;52.856;6.534;2022-09-01T13:53:03;834.28;;;291.38;;
55206;SDS011;41079;52.856;6.534;2022-09-01T13:55:31;833.22;;;290.10;;
55206;SDS011;41079;52.856;6.534;2022-09-01T13:57:58;835.40;;;291.60;;
55206;SDS011;41079;52.856;6.534;2022-09-01T14:00:25;834.45;;;290.35;;
55206;SDS011;41079;52.856;6.534;2022-09-01T14:02:54;835.45;;;291.42;;
55206;SDS011;41079;52.856;6.534;2022-09-01T14:05:29;834.50;;;290.33;;
55206;SDS011;41079;52.856;6.534;2022-09-01T14:07:58;833.40;;;290.73;;
55206;SDS011;41079;52.856;6.534;2022-09-01T14:10:24;831.35;;;289.00;;
55206;SDS011;41079;52.856;6.534;2022-09-01T14:12:51;833.17;;;291.52;;
55206;SDS011;41079;52.856;6.534;2022-09-01T14:15:17;832.35;;;290.15;;
55206;SDS011;41079;52.856;6.534;2022-09-01T14:17:46;825.90;;;284.38;;
55206;SDS011;41079;52.856;6.534;2022-09-01T14:20:18;824.90;;;282.42;;
55206;SDS011;41079;52.856;6.534;2022-09-01T14:22:46;833.03;;;290.25;;
55206;SDS011;41079;52.856;6.534;2022-09-01T14:25:15;834.88;;;290.85;;
55206;SDS011;41079;52.856;6.534;2022-09-01T14:27:42;831.65;;;287.35;;
55206;SDS011;41079;52.856;6.534;2022-09-01T14:30:10;830.47;;;286.27;;
55206;SDS011;41079;52.856;6.534;2022-09-01T14:32:47;832.05;;;288.20;;
55206;SDS011;41079;52.856;6.534;2022-09-01T14:35:13;829.22;;;286.30;;
55206;SDS011;41079;52.856;6.534;2022-09-01T14:37:40;825.00;;;282.63;;
55206;SDS011;41079;52.856;6.534;2022-09-01T14:40:06;832.55;;;289.90;;
55206;SDS011;41079;52.856;6.534;2022-09-01T14:42:34;825.65;;;283.45;;
55206;SDS011;41079;52.856;6.534;2022-09-01T14:45:03;821.42;;;280.95;;
55206;SDS011;41079;52.856;6.534;2022-09-01T14:47:29;831.33;;;289.42;;
55206;SDS011;41079;52.856;6.534;2022-09-01T14:49:55;830.15;;;288.83;;
55206;SDS011;41079;52.856;6.534;2022-09-01T14:52:21;830.80;;;290.00;;
55206;SDS011;41079;52.856;6.534;2022-09-01T14:54:47;831.28;;;289.13;;
55206;SDS011;41079;52.856;6.534;2022-09-01T14:57:13;828.20;;;286.23;;
55206;SDS011;41079;52.856;6.534;2022-09-01T14:59:40;828.35;;;286.00;;
55206;SDS011;41079;52.856;6.534;2022-09-01T15:02:06;836.45;;;291.73;;
55206;SDS011;41079;52.856;6.534;2022-09-01T15:04:32;833.42;;;289.00;;
55206;SDS011;41079;52.856;6.534;2022-09-01T15:06:58;837.00;;;291.17;;
55206;SDS011;41079;52.856;6.534;2022-09-01T15:09:24;833.22;;;287.80;;
55206;SDS011;41079;52.856;6.534;2022-09-01T15:11:50;833.40;;;287.52;;
55206;SDS011;41079;52.856;6.534;2022-09-01T15:14:16;826.30;;;282.45;;
55206;SDS011;41079;52.856;6.534;2022-09-01T15:16:41;835.03;;;291.05;;
55206;SDS011;41079;52.856;6.534;2022-09-01T15:19:08;827.97;;;285.77;;
55206;SDS011;41079;52.856;6.534;2022-09-01T15:21:36;824.97;;;282.67;;
55206;SDS011;41079;52.856;6.534;2022-09-01T15:24:03;830.25;;;288.10;;
55206;SDS011;41079;52.856;6.534;2022-09-01T15:26:30;833.03;;;291.52;;